Terminal Aerodrome Forecast
Issued by NWS

Home | Current Version | Previous Version | Text Only | Print | Product List | Glossary On
Versions: 1 2 3 4 5 6 7 8 9 10 11 12 13 14 15 16 17 18 19
637
FTUS43 KDLH 211123 AAA
TAFBRD
TAF AMD
KBRD 211123Z 2111/2212 00000KT P6SM SKC
     FM211500 15007G14KT P6SM SCT150
     FM220000 17008KT P6SM BKN100
     FM220300 16004KT P6SM -SHRA BKN045
     FM220500 VRB03KT P6SM VCSH BKN030
     FM220700 27003KT P6SM SCT035=

USA.gov is the U.S. government's official web portal to all federal, state and local government web resources and services.